createdAt,value
2023-01-19T00:00:55.960Z,3.90
2023-01-19T00:04:30.651Z,4.90
2023-01-19T00:08:04.806Z,5.70
2023-01-19T00:15:21.614Z,5.40
2023-01-19T00:19:03.413Z,4.60
2023-01-19T00:22:37.489Z,3.70
2023-01-19T00:25:59.303Z,4.50
2023-01-19T00:29:38.264Z,6.90
2023-01-19T00:33:08.717Z,4.30
2023-01-19T00:36:45.837Z,4.00
2023-01-19T00:40:17.999Z,7.80
2023-01-19T00:44:00.026Z,5.50
2023-01-19T00:47:49.317Z,6.10
2023-01-19T00:51:38.564Z,3.30
2023-01-19T00:55:15.445Z,3.10
2023-01-19T00:58:57.554Z,5.10
2023-01-19T01:02:22.980Z,3.60
2023-01-19T01:05:45.383Z,5.70
2023-01-19T01:08:52.956Z,5.70
2023-01-19T01:12:31.948Z,4.60
2023-01-19T01:16:19.929Z,14.00
2023-01-19T01:20:07.777Z,8.40
2023-01-19T01:23:26.074Z,5.20
2023-01-19T01:27:00.477Z,5.10
2023-01-19T01:30:43.577Z,3.80
2023-01-19T01:34:11.161Z,3.10
2023-01-19T01:37:51.235Z,2.30
2023-01-19T01:41:12.569Z,2.70
2023-01-19T01:44:52.161Z,2.20
2023-01-19T01:48:44.163Z,2.50
2023-01-19T01:52:09.667Z,3.00
2023-01-19T01:55:26.089Z,3.80
2023-01-19T01:58:49.448Z,5.00
2023-01-19T02:02:21.748Z,4.50
2023-01-19T02:05:46.759Z,2.90
2023-01-19T02:09:43.732Z,4.70
2023-01-19T02:13:09.115Z,3.50
2023-01-19T02:16:47.093Z,7.40
2023-01-19T02:20:19.291Z,10.80
2023-01-19T02:23:59.359Z,4.00
2023-01-19T02:27:47.738Z,3.90
2023-01-19T02:31:21.821Z,4.00
2023-01-19T02:35:01.018Z,3.60
2023-01-19T02:38:38.762Z,3.60
2023-01-19T02:42:12.890Z,3.70
2023-01-19T02:45:36.053Z,3.00
2023-01-19T02:48:59.683Z,3.20
2023-01-19T02:52:35.135Z,4.10
2023-01-19T02:56:15.316Z,3.00
2023-01-19T02:59:52.351Z,4.40
2023-01-19T03:03:35.830Z,4.70
2023-01-19T03:07:26.445Z,3.60
2023-01-19T03:11:10.872Z,5.30
2023-01-19T03:14:33.712Z,6.30
2023-01-19T03:18:15.733Z,4.40
2023-01-19T03:21:54.748Z,4.60
2023-01-19T03:25:22.794Z,4.90
2023-01-19T03:28:37.207Z,5.50
2023-01-19T03:32:13.679Z,3.30
2023-01-19T03:35:25.192Z,3.70
2023-01-19T03:38:54.851Z,4.40
2023-01-19T03:42:07.479Z,3.80
2023-01-19T03:45:36.482Z,7.50
2023-01-19T03:49:24.481Z,3.90
2023-01-19T03:52:58.489Z,5.10
2023-01-19T03:56:18.893Z,8.10
2023-01-19T03:59:22.431Z,8.00
2023-01-19T04:02:53.941Z,5.30
2023-01-19T04:09:03.527Z,10.00
2023-01-19T04:12:37.548Z,10.80
2023-01-19T04:16:12.086Z,10.70
2023-01-19T04:19:28.759Z,6.00
2023-01-19T04:22:57.055Z,2.10
2023-01-19T04:26:36.223Z,9.30
2023-01-19T04:30:15.320Z,7.70
2023-01-19T04:33:46.996Z,6.80
2023-01-19T04:37:11.993Z,5.50
2023-01-19T04:40:17.859Z,5.20
2023-01-19T04:43:38.590Z,3.10
2023-01-19T04:47:05.616Z,7.60
2023-01-19T04:50:54.883Z,10.20
2023-01-19T04:54:27.680Z,6.60
2023-01-19T04:57:57.046Z,9.20
2023-01-19T05:00:55.909Z,15.10
2023-01-19T05:04:24.212Z,6.60
2023-01-19T05:07:48.819Z,10.10
2023-01-19T05:11:36.839Z,6.90
2023-01-19T05:15:10.139Z,11.70
2023-01-19T05:18:59.351Z,12.30
2023-01-19T05:22:48.691Z,11.60
2023-01-19T05:26:30.471Z,12.70
2023-01-19T05:30:06.468Z,10.70
2023-01-19T05:33:45.637Z,9.80
2023-01-19T05:37:20.271Z,10.50
2023-01-19T05:41:03.108Z,7.60
2023-01-19T05:44:45.008Z,9.90
2023-01-19T05:47:41.955Z,7.90
2023-01-19T05:50:55.449Z,9.70
2023-01-19T05:54:25.298Z,8.50
2023-01-19T05:57:57.185Z,10.20
2023-01-19T06:01:38.041Z,12.30
2023-01-19T06:04:53.529Z,8.20
2023-01-19T06:08:19.117Z,8.50
2023-01-19T06:11:21.115Z,25.30
2023-01-19T06:14:56.030Z,15.80
2023-01-19T06:18:16.282Z,16.90
2023-01-19T06:21:26.107Z,12.60
2023-01-19T06:24:53.431Z,13.00
2023-01-19T06:28:05.477Z,11.60
2023-01-19T06:31:54.839Z,9.70
2023-01-19T06:35:44.116Z,10.20
2023-01-19T06:39:04.522Z,20.90
2023-01-19T06:42:29.082Z,116.30
2023-01-19T06:46:01.329Z,74.70
2023-01-19T06:49:33.879Z,22.10
2023-01-19T06:53:12.886Z,16.60
2023-01-19T06:56:59.958Z,15.00
2023-01-19T07:00:41.258Z,13.60
2023-01-19T07:03:38.260Z,15.20
2023-01-19T07:07:27.509Z,16.70
2023-01-19T07:11:25.420Z,44.10
2023-01-19T07:14:20.968Z,40.70
2023-01-19T07:17:01.719Z,42.80
2023-01-19T07:19:36.436Z,31.20
2023-01-19T07:22:13.125Z,22.60
2023-01-19T07:38:07.804Z,13.00
2023-01-19T07:42:06.260Z,15.30
2023-01-19T07:45:55.472Z,18.30
2023-01-19T07:49:44.658Z,16.70
2023-01-19T07:53:33.938Z,16.90
2023-01-19T07:57:23.189Z,20.50
2023-01-19T08:01:12.676Z,18.90
2023-01-19T08:05:01.943Z,17.50
2023-01-19T08:08:51.101Z,33.10
2023-01-19T08:12:40.443Z,56.90
2023-01-19T08:16:03.425Z,23.60
2023-01-19T08:19:30.644Z,20.90
2023-01-19T08:22:59.851Z,22.00
2023-01-19T08:26:38.366Z,16.80
2023-01-19T08:29:50.425Z,18.80
2023-01-19T08:33:04.135Z,18.00
2023-01-19T08:36:17.229Z,28.60
2023-01-19T08:39:28.221Z,22.30
2023-01-19T08:43:00.731Z,21.20
2023-01-19T08:46:05.575Z,20.20
2023-01-19T08:49:06.108Z,57.00
2023-01-19T08:51:51.468Z,28.20
2023-01-19T08:54:43.565Z,38.60
2023-01-19T08:57:42.929Z,20.80
2023-01-19T09:00:52.634Z,21.30
2023-01-19T09:03:36.172Z,20.40
2023-01-19T09:06:24.521Z,23.80
2023-01-19T09:09:32.427Z,18.30
2023-01-19T09:12:08.904Z,23.10
2023-01-19T09:14:52.954Z,23.70
2023-01-19T09:17:36.467Z,19.20
2023-01-19T09:20:31.515Z,26.00
2023-01-19T09:23:16.949Z,20.30
2023-01-19T09:26:51.393Z,20.80
2023-01-19T09:29:44.183Z,16.70
2023-01-19T09:32:52.539Z,33.10
2023-01-19T09:36:00.209Z,20.60
2023-01-19T09:39:13.058Z,22.80
2023-01-19T09:43:06.383Z,15.70
2023-01-19T09:46:43.020Z,20.10
2023-01-19T09:49:58.681Z,22.90
2023-01-19T09:53:19.126Z,21.30
2023-01-19T09:56:34.089Z,22.80
2023-01-19T09:59:50.921Z,23.80
2023-01-19T10:03:20.974Z,14.60
2023-01-19T10:06:23.251Z,24.30
2023-01-19T10:09:50.690Z,23.70
2023-01-19T10:13:44.811Z,25.10
2023-01-19T10:17:07.903Z,30.70
2023-01-19T10:20:14.128Z,45.70
2023-01-19T10:22:50.042Z,26.60
2023-01-19T10:25:31.987Z,18.70
2023-01-19T10:28:13.735Z,26.40
2023-01-19T10:30:48.233Z,25.90
2023-01-19T10:33:20.859Z,29.70
2023-01-19T10:35:54.605Z,45.50
2023-01-19T10:38:47.044Z,26.40
2023-01-19T10:41:32.023Z,31.00
2023-01-19T10:44:23.275Z,19.00
2023-01-19T10:47:16.798Z,21.80
2023-01-19T10:50:16.091Z,21.50
2023-01-19T10:52:53.111Z,20.70
2023-01-19T10:55:44.930Z,20.30
2023-01-19T10:58:35.062Z,50.90
2023-01-19T11:01:22.032Z,43.20
2023-01-19T11:04:10.369Z,271.20
2023-01-19T11:07:24.688Z,71.30
2023-01-19T11:10:14.167Z,63.30
2023-01-19T11:13:19.823Z,26.90
2023-01-19T11:16:03.673Z,57.30
2023-01-19T11:19:04.396Z,28.00
2023-01-19T11:22:06.580Z,47.30
2023-01-19T11:25:04.248Z,75.10
2023-01-19T11:28:12.635Z,51.40
2023-01-19T11:31:52.965Z,26.90
2023-01-19T11:35:16.219Z,45.20
2023-01-19T11:38:49.058Z,22.60
2023-01-19T11:42:37.288Z,17.80
2023-01-19T11:46:20.369Z,16.30
2023-01-19T11:50:27.599Z,23.20
2023-01-19T11:54:28.637Z,16.50
2023-01-19T11:57:57.866Z,15.30
2023-01-19T12:01:32.604Z,18.60
2023-01-19T12:05:10.117Z,21.40
2023-01-19T12:08:34.065Z,20.90
2023-01-19T12:11:48.242Z,20.30
2023-01-19T12:15:25.751Z,22.50
2023-01-19T12:18:55.826Z,20.30
2023-01-19T12:22:42.737Z,23.10
2023-01-19T12:26:05.773Z,18.10
2023-01-19T12:30:00.705Z,16.40
2023-01-19T12:34:01.790Z,16.10
2023-01-19T12:37:35.122Z,20.00
2023-01-19T12:41:15.950Z,13.20
2023-01-19T12:45:11.178Z,16.20
2023-01-19T12:49:05.984Z,13.00
2023-01-19T12:57:01.549Z,26.00
2023-01-19T13:00:36.229Z,24.80
2023-01-19T13:04:40.716Z,21.20
2023-01-19T13:08:47.975Z,12.00
2023-01-19T13:12:52.269Z,17.80
2023-01-19T13:16:59.871Z,16.30
2023-01-19T13:20:49.081Z,32.30
2023-01-19T13:24:31.474Z,29.10
2023-01-19T13:28:13.295Z,37.70
2023-01-19T13:31:55.023Z,23.70
2023-01-19T13:35:44.408Z,17.30
2023-01-19T13:39:33.715Z,26.90
2023-01-19T13:43:25.851Z,32.00
2023-01-19T13:47:15.113Z,23.50
2023-01-19T13:51:02.643Z,20.00
2023-01-19T13:55:00.492Z,34.00
2023-01-19T13:58:40.646Z,30.20
2023-01-19T14:02:29.928Z,20.20
2023-01-19T14:06:28.414Z,21.30
2023-01-19T14:09:45.792Z,61.40
2023-01-19T14:13:19.614Z,67.50
2023-01-19T14:16:30.879Z,25.00
2023-01-19T14:19:09.554Z,29.20
2023-01-19T14:22:45.609Z,29.20
2023-01-19T14:25:57.742Z,16.50
2023-01-19T14:29:14.792Z,29.70
2023-01-19T14:32:58.864Z,18.70
2023-01-19T14:35:59.141Z,24.20
2023-01-19T14:39:28.970Z,25.50
2023-01-19T14:42:42.337Z,24.80
2023-01-19T14:46:01.751Z,22.80
2023-01-19T14:49:13.230Z,21.50
2023-01-19T14:57:10.008Z,23.70
2023-01-19T15:00:21.075Z,24.00
2023-01-19T15:03:45.902Z,27.00
2023-01-19T15:07:35.364Z,24.10
2023-01-19T15:11:14.521Z,20.40
2023-01-19T15:14:56.393Z,19.50
2023-01-19T15:18:25.730Z,92.40
2023-01-19T15:22:07.373Z,434.30
2023-01-19T15:25:26.139Z,353.50
2023-01-19T15:29:15.462Z,392.80
2023-01-19T15:32:42.553Z,124.50
2023-01-19T15:36:16.969Z,107.70
2023-01-19T15:40:03.549Z,47.90
2023-01-19T15:43:40.357Z,61.10
2023-01-19T15:46:55.274Z,45.30
2023-01-19T15:50:06.751Z,45.00
2023-01-19T15:53:30.873Z,30.60
2023-01-19T15:56:53.646Z,23.10
2023-01-19T16:00:15.265Z,27.70
2023-01-19T16:03:41.210Z,56.60
2023-01-19T16:06:57.656Z,41.50
2023-01-19T16:10:29.829Z,33.90
2023-01-19T16:13:33.923Z,44.50
2023-01-19T16:16:55.640Z,38.70
2023-01-19T16:20:34.857Z,26.00
2023-01-19T16:23:41.001Z,27.20
2023-01-19T16:27:25.784Z,27.20
2023-01-19T16:31:05.070Z,27.50
2023-01-19T16:34:41.779Z,24.30
2023-01-19T16:38:30.989Z,27.20
2023-01-19T16:42:20.386Z,29.80
2023-01-19T16:45:48.564Z,30.10
2023-01-19T16:49:40.440Z,154.30
2023-01-19T16:53:10.708Z,62.70
2023-01-19T16:56:59.894Z,89.30
2023-01-19T17:00:36.828Z,75.90
2023-01-19T17:04:26.041Z,33.20
2023-01-19T17:07:58.122Z,49.20
2023-01-19T17:11:24.940Z,14.30
2023-01-19T17:15:06.798Z,15.70
2023-01-19T17:18:55.924Z,13.10
2023-01-19T17:22:45.141Z,10.80
2023-01-19T17:26:32.945Z,13.90
2023-01-19T17:30:14.176Z,9.90
2023-01-19T17:33:31.855Z,15.10
2023-01-19T17:37:21.104Z,5.90
2023-01-19T17:41:10.402Z,299.10
2023-01-19T17:44:59.615Z,9.30
2023-01-19T17:48:48.804Z,5.20
2023-01-19T17:52:37.892Z,16.70
2023-01-19T17:56:14.439Z,16.20
2023-01-19T18:00:03.650Z,6.80
2023-01-19T18:03:52.958Z,3.80
2023-01-19T18:07:42.190Z,2.10
2023-01-19T18:11:34.088Z,6.60
2023-01-19T18:15:17.055Z,4.50
2023-01-19T18:19:06.315Z,7.00
2023-01-19T18:22:55.522Z,6.80
2023-01-19T18:26:41.743Z,5.60
2023-01-19T18:30:29.563Z,4.00
2023-01-19T18:34:18.967Z,6.80
2023-01-19T18:38:00.642Z,10.70
2023-01-19T18:41:42.255Z,17.30
2023-01-19T18:45:31.390Z,32.80
2023-01-19T18:49:20.578Z,15.00
2023-01-19T18:53:08.748Z,11.70
2023-01-19T18:56:50.718Z,29.30
2023-01-19T19:00:39.913Z,36.90
2023-01-19T19:04:29.224Z,17.10
2023-01-19T19:08:17.186Z,74.00
2023-01-19T19:12:09.260Z,10.20
2023-01-19T19:15:58.516Z,16.90
2023-01-19T19:19:47.843Z,43.70
2023-01-19T19:23:11.470Z,10.80
2023-01-19T19:26:33.122Z,7.90
2023-01-19T19:30:15.466Z,2.80
2023-01-19T19:34:04.931Z,2.70
2023-01-19T19:37:46.734Z,11.20
2023-01-19T19:41:36.031Z,18.40
2023-01-19T19:45:23.601Z,13.60
2023-01-19T19:49:12.738Z,31.10
2023-01-19T19:53:01.967Z,17.90
2023-01-19T19:56:57.034Z,10.00
2023-01-19T20:00:39.277Z,7.10
2023-01-19T20:04:23.805Z,6.10
2023-01-19T20:11:44.401Z,4.30
2023-01-19T20:15:33.576Z,8.70
2023-01-19T20:19:22.794Z,16.20
2023-01-19T20:23:04.368Z,34.00
2023-01-19T20:26:53.597Z,43.30
2023-01-19T20:30:42.996Z,22.30
2023-01-19T20:34:33.343Z,18.70
2023-01-19T20:38:23.018Z,11.40
2023-01-19T20:42:10.848Z,9.20
2023-01-19T20:46:00.193Z,21.70
2023-01-19T20:49:42.113Z,21.90
2023-01-19T20:53:31.344Z,15.80
2023-01-19T20:57:15.198Z,14.80
2023-01-19T21:01:04.201Z,11.60
2023-01-19T21:04:36.148Z,8.20
2023-01-19T21:08:25.401Z,13.70
2023-01-19T21:12:14.699Z,13.80
2023-01-19T21:16:03.983Z,10.40
2023-01-19T21:19:52.034Z,12.70
2023-01-19T21:23:32.333Z,10.10
2023-01-19T21:27:21.599Z,10.10
2023-01-19T21:31:09.888Z,13.60
2023-01-19T21:34:59.301Z,9.90
2023-01-19T21:38:41.068Z,13.70
2023-01-19T21:42:30.680Z,14.10
2023-01-19T21:46:14.994Z,36.30
2023-01-19T21:50:04.191Z,30.20
2023-01-19T21:53:52.458Z,27.00
2023-01-19T21:57:42.055Z,18.30
2023-01-19T22:01:24.136Z,30.30
2023-01-19T22:05:06.097Z,24.10
2023-01-19T22:08:54.126Z,9.80
2023-01-19T22:12:43.458Z,7.80
2023-01-19T22:16:33.709Z,5.60
2023-01-19T22:20:22.974Z,6.80
2023-01-19T22:24:11.154Z,6.10
2023-01-19T22:28:00.410Z,3.40
2023-01-19T22:31:49.662Z,5.40
2023-01-19T22:35:40.581Z,28.50
2023-01-19T22:39:29.779Z,6.50
2023-01-19T22:43:19.006Z,7.10
2023-01-19T22:47:08.262Z,3.70
2023-01-19T22:50:56.475Z,22.30
2023-01-19T22:54:45.715Z,8.50
2023-01-19T22:58:34.856Z,4.30
2023-01-19T23:02:24.057Z,3.40
2023-01-19T23:06:13.221Z,6.60
2023-01-19T23:10:00.867Z,5.30
2023-01-19T23:13:50.153Z,3.60
2023-01-19T23:17:37.615Z,4.90
2023-01-19T23:21:26.560Z,3.90
2023-01-19T23:25:15.774Z,3.60
2023-01-19T23:29:05.106Z,3.20
2023-01-19T23:32:54.279Z,2.10
2023-01-19T23:36:43.557Z,1.60
2023-01-19T23:40:32.814Z,7.00
2023-01-19T23:44:21.954Z,41.50
2023-01-19T23:48:11.051Z,7.80
2023-01-19T23:52:00.180Z,1.70
2023-01-19T23:55:49.527Z,3.10
2023-01-19T23:59:38.712Z,1.20
